Kostroma, Russia
Current Conditions -  °F | °C
As of 9:30 PM on Friday 28 Nov 2014 (Local Time) from UUDL Reporting Station
Overcast Overcast  
Wind Chill: 18°   Ceiling: 400
Heat Index: 18°   Visibility: 6mi
Dew Point: 16°   Wind: 0mph
Humidity: 93%   Direction: NA
Pressure: 30.68"   Gusts: NA
Location:  57.77°N, 40.93°E
Report Text: UUDL 281830Z 00000MPS 9999 OVC004 M08/M09 Q1039 NOSIG RMKQBB140 QFE770 23000060
Loading
Personal Weather Stations






























Interactive Weather Map New forecast layout! Learn more

10-Day Weather Forecast

Advertisements
Track Severe Weather on mobile